Time;durP1;ratioP1;P1;durP2;ratioP2;P2;SDS_P1;SDS_P2;PMS_P1;PMS_P2;Temp;Humidity;BMP_temperature;BMP_pressure;BME280_temperature;BME280_humidity;BME280_pressure;Samples;Min_cycle;Max_cycle;Signal;HPM_P1;HPM_P2
2021/06/30 00:00:50;;;;;;;3.05;2.75;;;;;;;26.18;44.57;99131.58;1818310;78;21016;-41
2021/06/30 00:03:17;;;;;;;3.02;2.72;;;;;;;26.18;44.61;99132.92;1819924;78;21058;-41
2021/06/30 00:05:44;;;;;;;5.47;2.67;;;;;;;26.15;44.65;99135.94;1816786;77;22404;-41
2021/06/30 00:08:11;;;;;;;4.65;2.40;;;;;;;26.14;44.64;99140.98;1819175;77;21036;-40
2021/06/30 00:10:37;;;;;;;7.37;2.60;;;;;;;26.14;44.64;99149.07;1820379;78;21126;-40
2021/06/30 00:13:04;;;;;;;3.08;2.20;;;;;;;26.13;44.60;99147.40;1775532;78;21437;-40
2021/06/30 00:15:32;;;;;;;4.97;2.33;;;;;;;26.14;44.52;99149.07;1814122;77;38403;-40
2021/06/30 00:17:59;;;;;;;3.25;2.40;;;;;;;26.14;44.50;99153.11;1788546;78;21471;-39
2021/06/30 00:20:25;;;;;;;3.15;2.12;;;;;;;26.13;44.47;99152.28;1821315;78;21040;-41
2021/06/30 00:22:54;;;;;;;3.90;2.02;;;;;;;26.14;44.40;99158.51;1819561;78;21074;-40
2021/06/30 00:25:21;;;;;;;7.53;2.72;;;;;;;26.14;44.40;99153.11;1818145;78;21050;-41
2021/06/30 00:27:49;;;;;;;8.58;2.62;;;;;;;26.13;44.42;99152.28;1818150;77;20961;-41
2021/06/30 00:30:17;;;;;;;4.20;2.70;;;;;;;26.14;44.39;99154.46;1825022;77;21092;-39
2021/06/30 00:32:44;;;;;;;3.98;2.58;;;;;;;26.13;44.41;99150.09;1794408;77;21035;-40
2021/06/30 00:35:16;;;;;;;4.42;2.50;;;;;;;26.12;44.42;99154.63;1827022;77;21285;-40
2021/06/30 00:37:43;;;;;;;2.58;2.22;;;;;;;26.13;44.40;99150.09;1828015;77;21098;-41
2021/06/30 00:40:13;;;;;;;3.77;2.30;;;;;;;26.12;44.39;99155.97;1827338;77;21022;-41
2021/06/30 00:42:39;;;;;;;5.62;2.40;;;;;;;26.12;44.39;99157.83;1821058;77;21074;-40
2021/06/30 00:45:09;;;;;;;3.92;2.33;;;;;;;26.11;44.35;99157.52;1827060;77;20987;-40
2021/06/30 00:47:35;;;;;;;2.17;2.05;;;;;;;26.10;44.35;99150.41;1806940;77;21098;-41
2021/06/30 00:50:04;;;;;;;2.95;2.20;;;;;;;26.09;44.34;99149.58;1797728;77;21023;-41
2021/06/30 00:52:30;;;;;;;3.87;2.42;;;;;;;26.08;44.31;99147.87;1825988;77;22185;-40
2021/06/30 00:54:58;;;;;;;2.83;2.40;;;;;;;26.08;44.30;99145.19;1827000;77;21059;-41
2021/06/30 00:57:24;;;;;;;3.02;2.40;;;;;;;26.08;44.25;99138.95;1821895;77;21062;-40
2021/06/30 00:59:54;;;;;;;2.45;2.22;;;;;;;26.07;44.26;99139.95;1826950;77;21097;-40
2021/06/30 01:02:19;;;;;;;3.58;2.40;;;;;;;26.06;44.24;99136.42;1826864;77;21034;-41
2021/06/30 01:04:46;;;;;;;2.37;2.17;;;;;;;26.06;44.24;99143.67;1794904;77;21465;-41
2021/06/30 01:07:14;;;;;;;2.42;2.22;;;;;;;26.06;44.23;99140.98;1827572;77;21027;-40
2021/06/30 01:09:41;;;;;;;2.70;2.15;;;;;;;26.05;44.21;99137.92;1827622;77;21050;-41
2021/06/30 01:12:10;;;;;;;2.10;1.90;;;;;;;26.04;44.19;99140.27;1825830;77;21062;-40
2021/06/30 01:14:37;;;;;;;3.30;1.95;;;;;;;26.03;44.18;99139.44;1826158;77;21492;-39
2021/06/30 01:17:06;;;;;;;2.25;2.00;;;;;;;26.04;44.19;99138.92;1828101;77;21066;-39
2021/06/30 01:19:34;;;;;;;3.37;2.05;;;;;;;26.02;44.17;99143.12;1826138;77;21534;-40
2021/06/30 01:22:01;;;;;;;3.00;2.27;;;;;;;26.03;44.15;99139.95;1826411;77;21090;-40
2021/06/30 01:24:31;;;;;;;3.40;2.67;;;;;;;26.00;44.13;99141.61;1821608;77;21065;-38
2021/06/30 01:26:58;;;;;;;4.20;2.17;;;;;;;26.00;44.13;99137.05;1811614;77;21565;-40
2021/06/30 01:29:24;;;;;;;2.58;2.02;;;;;;;25.99;44.14;99142.61;1812142;77;21026;-40
2021/06/30 01:31:51;;;;;;;6.05;2.22;;;;;;;25.99;44.14;99135.86;1797273;78;21891;-41
2021/06/30 01:34:18;;;;;;;2.55;2.25;;;;;;;26.00;44.14;99144.31;1799626;77;21359;-39
2021/06/30 01:36:51;;;;;;;3.70;2.37;;;;;;;25.98;44.14;99135.55;1794638;78;21037;-39
2021/06/30 01:39:20;;;;;;;2.67;2.33;;;;;;;25.98;44.15;99138.23;1772784;77;21663;-38
2021/06/30 01:41:47;;;;;;;2.40;2.20;;;;;;;25.97;44.16;99141.93;1790999;78;21089;-40
2021/06/30 01:44:15;;;;;;;2.92;2.08;;;;;;;25.97;44.30;99143.28;1792677;78;20999;-43
2021/06/30 01:46:42;;;;;;;3.10;2.12;;;;;;;25.95;44.36;99137.53;1797020;78;20995;-44
2021/06/30 01:49:09;;;;;;;3.90;2.30;;;;;;;25.98;44.25;99136.89;1774859;78;21058;-44
2021/06/30 01:51:36;;;;;;;2.17;2.08;;;;;;;26.00;44.10;99138.92;1799078;78;21054;-45
2021/06/30 01:54:05;;;;;;;2.30;2.02;;;;;;;26.04;43.98;99143.83;1771090;78;21047;-44
2021/06/30 01:56:33;;;;;;;3.65;1.92;;;;;;;26.08;43.86;99148.39;1773751;78;21444;-44
2021/06/30 01:59:04;;;;;;;2.40;2.02;;;;;;;26.12;43.76;99145.70;1794350;78;21069;-44
2021/06/30 02:01:30;;;;;;;3.25;2.30;;;;;;;26.16;43.61;99151.61;1773044;78;21093;-47
2021/06/30 02:03:58;;;;;;;2.47;2.22;;;;;;;26.20;43.53;99148.95;1798381;77;21003;-47
2021/06/30 02:06:28;;;;;;;3.05;2.40;;;;;;;26.22;43.43;99149.11;1799389;78;21026;-46
2021/06/30 02:08:57;;;;;;;3.08;2.47;;;;;;;26.26;43.33;99158.58;1773328;78;20997;-46
2021/06/30 02:11:26;;;;;;;3.50;3.20;;;;;;;26.29;43.24;99155.56;1799352;77;21569;-46
2021/06/30 02:13:52;;;;;;;2.85;2.12;;;;;;;26.31;43.15;99160.80;1799488;78;21038;-46
2021/06/30 02:16:21;;;;;;;2.92;2.35;;;;;;;26.37;43.08;99161.98;1799579;78;21011;-45
2021/06/30 02:18:48;;;;;;;3.58;2.25;;;;;;;26.45;42.94;99167.41;1786717;79;20959;-45
2021/06/30 02:21:16;;;;;;;2.83;2.20;;;;;;;26.54;42.69;99170.97;1763263;79;21068;-46
2021/06/30 02:23:44;;;;;;;2.15;1.87;;;;;;;26.61;42.54;99167.46;1750699;80;21022;-45
2021/06/30 02:26:10;;;;;;;2.35;2.00;;;;;;;26.71;42.38;99165.97;1793684;78;21122;-47
2021/06/30 02:28:38;;;;;;;2.98;1.95;;;;;;;26.81;42.11;99175.27;1775556;78;21041;-45
2021/06/30 02:31:05;;;;;;;5.25;2.20;;;;;;;26.93;41.88;99181.19;1816833;77;21565;-47
2021/06/30 02:33:32;;;;;;;4.58;2.20;;;;;;;27.03;41.67;99177.34;1811469;78;21129;-46
2021/06/30 02:35:59;;;;;;;2.15;1.82;;;;;;;27.15;41.44;99176.50;1803365;77;21034;-45
2021/06/30 02:38:25;;;;;;;1.80;1.70;;;;;;;27.27;41.17;99183.77;1806915;77;21034;-45
2021/06/30 02:40:52;;;;;;;2.40;2.20;;;;;;;27.38;40.96;99179.90;1804635;78;21023;-44
2021/06/30 02:43:19;;;;;;;2.00;1.90;;;;;;;27.49;40.80;99182.75;1807214;78;21034;-46
2021/06/30 02:45:46;;;;;;;2.60;1.90;;;;;;;27.59;40.59;99179.39;1776490;78;21048;-45
2021/06/30 02:48:12;;;;;;;2.87;2.12;;;;;;;27.70;40.32;99172.25;1805742;77;21006;-46
2021/06/30 02:50:39;;;;;;;2.72;2.08;;;;;;;27.82;40.06;99171.89;1804006;77;21029;-46
2021/06/30 02:53:07;;;;;;;2.15;1.82;;;;;;;27.90;39.87;99169.17;1770273;78;21737;-47
2021/06/30 02:55:34;;;;;;;2.60;1.98;;;;;;;28.01;39.67;99173.38;1807854;78;21557;-46
2021/06/30 02:58:01;;;;;;;1.92;1.82;;;;;;;28.09;39.52;99170.17;1805963;78;21108;-45
2021/06/30 03:00:27;;;;;;;2.15;1.80;;;;;;;28.19;39.30;99175.86;1803022;77;21639;-45
2021/06/30 03:02:55;;;;;;;3.27;2.17;;;;;;;28.30;39.14;99176.84;1806055;78;21057;-45
2021/06/30 03:05:21;;;;;;;4.85;1.80;;;;;;;28.41;39.00;99178.30;1805289;77;21037;-46
2021/06/30 03:07:51;;;;;;;2.95;1.60;;;;;;;28.50;38.78;99175.38;1806345;78;21492;-46
2021/06/30 03:10:19;;;;;;;4.12;2.02;;;;;;;28.61;38.61;99170.62;1756199;78;21251;-45
2021/06/30 03:12:47;;;;;;;3.22;1.77;;;;;;;28.70;38.51;99169.05;1766779;78;21509;-46
2021/06/30 03:15:14;;;;;;;2.33;1.85;;;;;;;28.80;38.33;99161.19;1806900;78;20976;-44
2021/06/30 03:17:42;;;;;;;1.92;1.70;;;;;;;28.89;38.09;99160.95;1808339;78;21023;-45
2021/06/30 03:20:11;;;;;;;3.02;1.92;;;;;;;29.01;37.90;99160.55;1808004;77;21034;-45
2021/06/30 03:22:39;;;;;;;2.40;1.92;;;;;;;29.12;37.69;99167.38;1805972;77;21092;-46
2021/06/30 03:25:11;;;;;;;2.58;1.70;;;;;;;29.22;37.53;99166.16;1805697;78;21100;-44
2021/06/30 03:27:40;;;;;;;2.72;1.92;;;;;;;29.35;37.33;99169.59;1793658;78;21077;-42
2021/06/30 03:30:09;;;;;;;4.12;1.65;;;;;;;29.47;37.16;99165.92;1764723;79;21050;-46
2021/06/30 03:32:35;;;;;;;2.58;1.90;;;;;;;29.58;36.95;99168.20;1741864;79;21011;-46
2021/06/30 03:35:04;;;;;;;2.75;1.87;;;;;;;29.69;36.81;99170.13;1776959;79;22558;-44
2021/06/30 03:37:31;;;;;;;1.72;1.62;;;;;;;29.79;36.66;99167.52;1774127;79;21542;-46
2021/06/30 03:39:57;;;;;;;1.60;1.50;;;;;;;29.90;36.42;99174.34;1774418;79;21646;-47
2021/06/30 03:42:24;;;;;;;1.75;1.65;;;;;;;29.99;36.25;99175.94;1775713;79;21020;-44
2021/06/30 03:44:52;;;;;;;2.17;1.67;;;;;;;30.07;36.10;99176.87;1775839;79;21042;-46
2021/06/30 03:47:20;;;;;;;4.70;1.80;;;;;;;30.16;35.94;99176.59;1770136;79;21070;-45
2021/06/30 03:49:47;;;;;;;2.77;1.72;;;;;;;30.24;35.96;99181.05;1770805;79;21074;-46
2021/06/30 03:52:13;;;;;;;4.78;1.82;;;;;;;30.33;35.73;99181.30;1771615;79;21047;-46
2021/06/30 03:54:40;;;;;;;2.17;1.55;;;;;;;30.41;35.58;99180.89;1769081;79;21077;-43
2021/06/30 03:57:08;;;;;;;3.55;2.40;;;;;;;30.50;35.42;99174.33;1772094;79;21526;-46
2021/06/30 03:59:34;;;;;;;3.10;2.10;;;;;;;30.58;35.42;99174.22;1773232;79;21093;-44
2021/06/30 04:02:01;;;;;;;2.40;1.62;;;;;;;30.66;35.25;99174.61;1773255;79;21595;-46
2021/06/30 04:04:28;;;;;;;3.65;2.30;;;;;;;30.75;35.04;99177.02;1741311;79;21034;-46
2021/06/30 04:06:55;;;;;;;4.83;1.80;;;;;;;30.85;34.92;99182.64;1770866;79;21090;-46
2021/06/30 04:09:23;;;;;;;4.05;2.30;;;;;;;30.92;34.86;99178.97;1769031;79;21118;-45
2021/06/30 04:11:50;;;;;;;3.52;2.30;;;;;;;31.00;34.67;99178.05;1760840;79;21071;-46
2021/06/30 04:14:17;;;;;;;4.70;2.15;;;;;;;31.08;34.55;99186.04;1770065;79;21856;-44
2021/06/30 04:16:44;;;;;;;3.58;2.08;;;;;;;31.13;34.48;99188.19;1781976;78;21015;-44
2021/06/30 04:19:10;;;;;;;2.98;1.85;;;;;;;31.17;34.42;99187.27;1756589;79;21051;-45
2021/06/30 04:21:38;;;;;;;6.33;2.20;;;;;;;31.21;34.37;99189.94;1751303;79;21034;-46
2021/06/30 04:24:08;;;;;;;5.80;2.10;;;;;;;31.23;34.35;99187.33;1776210;78;21102;-42
2021/06/30 04:26:36;;;;;;;7.40;2.45;;;;;;;31.29;34.33;99187.09;1762640;79;21042;-46
2021/06/30 04:29:04;;;;;;;7.58;2.62;;;;;;;31.33;34.36;99191.09;1765750;79;21058;-49
2021/06/30 04:31:31;;;;;;;7.53;2.47;;;;;;;31.39;34.22;99193.03;1756094;79;21351;-45
2021/06/30 04:33:57;;;;;;;4.10;2.05;;;;;;;31.43;34.15;99195.66;1752538;79;21054;-45
2021/06/30 04:36:25;;;;;;;6.40;1.92;;;;;;;31.39;34.22;99196.25;1742960;80;21040;-43
2021/06/30 04:38:51;;;;;;;5.03;2.10;;;;;;;31.34;34.15;99195.99;1772121;78;21500;-46
2021/06/30 04:41:18;;;;;;;6.92;2.27;;;;;;;31.21;34.37;99196.73;1795756;78;21093;-46
2021/06/30 04:43:45;;;;;;;3.98;2.17;;;;;;;31.01;34.69;99201.44;1792588;79;21081;-43
2021/06/30 04:46:12;;;;;;;4.85;2.22;;;;;;;30.81;35.21;99203.91;1785757;79;21398;-45
2021/06/30 04:48:39;;;;;;;4.05;2.20;;;;;;;30.61;35.47;99196.89;1796399;78;21119;-47
2021/06/30 04:51:06;;;;;;;3.77;2.50;;;;;;;30.47;35.70;99195.06;1800869;78;21062;-47
2021/06/30 04:53:34;;;;;;;4.62;2.00;;;;;;;30.31;35.92;99187.44;1794253;78;21031;-44
2021/06/30 04:56:00;;;;;;;5.10;2.22;;;;;;;30.18;36.17;99186.73;1762779;78;21025;-43
2021/06/30 04:58:28;;;;;;;4.55;2.10;;;;;;;30.08;36.32;99187.53;1798418;78;21027;-46
2021/06/30 05:00:56;;;;;;;4.20;2.02;;;;;;;29.98;36.51;99185.09;1792747;78;21147;-38
2021/06/30 05:03:27;;;;;;;4.80;2.37;;;;;;;29.89;36.72;99183.52;1782317;79;21034;-45
2021/06/30 05:05:55;;;;;;;5.58;2.22;;;;;;;29.81;36.87;99182.25;1792865;79;21090;-38
2021/06/30 05:08:23;;;;;;;3.02;2.25;;;;;;;29.75;36.81;99185.66;1796157;79;21041;-41
2021/06/30 05:10:51;;;;;;;4.00;2.30;;;;;;;29.72;36.89;99184.67;1774803;78;21031;-41
2021/06/30 05:13:19;;;;;;;5.10;2.00;;;;;;;29.70;37.08;99181.31;1769195;78;21144;-41
2021/06/30 05:15:45;;;;;;;2.40;2.15;;;;;;;29.67;37.20;99174.38;1760316;79;21056;-41
2021/06/30 05:18:14;;;;;;;3.00;1.80;;;;;;;29.66;37.13;99174.06;1750567;80;20987;-42
2021/06/30 05:20:41;;;;;;;3.65;2.05;;;;;;;29.61;37.04;99178.67;1753447;78;21549;-40
2021/06/30 05:23:07;;;;;;;5.45;2.00;;;;;;;29.58;36.89;99184.46;1792871;78;20983;-40
2021/06/30 05:25:34;;;;;;;2.17;1.98;;;;;;;29.51;37.09;99183.52;1789796;78;21046;-40
2021/06/30 05:28:01;;;;;;;4.90;1.90;;;;;;;29.49;36.89;99196.91;1782010;78;21593;-41
2021/06/30 05:30:28;;;;;;;2.20;1.65;;;;;;;29.46;37.09;99195.42;1748164;78;21019;-41
2021/06/30 05:32:55;;;;;;;2.10;1.90;;;;;;;29.40;37.32;99187.53;1778247;77;21066;-42
2021/06/30 05:35:22;;;;;;;2.33;1.80;;;;;;;29.37;37.46;99187.02;1808420;77;21055;-41
2021/06/30 05:37:49;;;;;;;4.08;2.05;;;;;;;29.36;37.64;99196.20;1801837;77;21148;-40
2021/06/30 05:40:16;;;;;;;4.45;1.72;;;;;;;29.36;37.64;99190.78;1800054;77;21542;-42
2021/06/30 05:42:43;;;;;;;3.52;2.00;;;;;;;29.36;37.61;99188.06;1765492;77;21561;-41
2021/06/30 05:45:15;;;;;;;5.15;2.00;;;;;;;29.35;37.59;99188.56;1814661;77;21016;-40
2021/06/30 05:47:39;;;;;;;2.47;1.85;;;;;;;29.36;37.63;99186.71;1804027;77;21047;-41
2021/06/30 05:50:07;;;;;;;3.05;1.85;;;;;;;29.36;37.61;99189.42;1797587;78;23354;-42
2021/06/30 05:52:34;;;;;;;5.00;4.00;;;;;;;29.31;37.24;99187.77;1818459;77;21066;-41
2021/06/30 05:55:01;;;;;;;5.85;3.30;;;;;;;29.20;37.67;99184.47;1813845;77;21050;-42
2021/06/30 05:57:27;;;;;;;7.28;3.55;;;;;;;29.04;37.67;99187.27;1812086;77;21040;-41
2021/06/30 05:59:54;;;;;;;4.47;3.67;;;;;;;28.89;37.79;99177.20;1782204;77;21549;-41
2021/06/30 06:02:20;;;;;;;3.47;2.95;;;;;;;28.80;37.88;99185.06;1813000;77;23337;-41
2021/06/30 06:04:47;;;;;;;3.80;3.10;;;;;;;28.72;37.97;99186.47;1818120;77;21015;-41
2021/06/30 06:07:14;;;;;;;4.92;2.72;;;;;;;28.66;38.25;99192.58;1817198;77;21014;-42
2021/06/30 06:09:41;;;;;;;4.55;2.40;;;;;;;28.61;38.44;99184.98;1779741;77;22192;-39
2021/06/30 06:12:09;;;;;;;3.05;2.02;;;;;;;28.57;38.48;99194.49;1815695;77;21043;-41
2021/06/30 06:14:35;;;;;;;6.87;2.35;;;;;;;28.52;38.67;99192.28;1817988;77;22274;-41
2021/06/30 06:17:04;;;;;;;3.00;2.37;;;;;;;28.49;38.83;99195.86;1813902;77;21367;-40
2021/06/30 06:19:33;;;;;;;2.72;2.12;;;;;;;28.46;39.00;99195.72;1811671;77;21541;-41
2021/06/30 06:22:00;;;;;;;3.22;1.98;;;;;;;28.46;39.00;99196.20;1810732;77;21034;-40
2021/06/30 06:24:29;;;;;;;9.68;7.28;;;;;;;28.46;38.90;99194.84;1785647;78;22216;-38
2021/06/30 06:26:56;;;;;;;14.25;7.30;;;;;;;28.44;38.88;99189.61;1801202;78;21279;-41
2021/06/30 06:29:23;;;;;;;8.00;6.42;;;;;;;28.44;38.99;99189.61;1801859;78;20972;-40
2021/06/30 06:31:50;;;;;;;10.63;6.08;;;;;;;28.43;39.12;99189.78;1814860;77;20988;-39
2021/06/30 06:34:20;;;;;;;6.87;4.70;;;;;;;28.41;39.21;99189.98;1792852;77;21042;-40
2021/06/30 06:36:49;;;;;;;5.90;4.55;;;;;;;28.39;39.20;99189.30;1817117;77;21105;-42
2021/06/30 06:39:17;;;;;;;3.83;3.17;;;;;;;28.38;39.21;99188.98;1809939;77;21118;-42
2021/06/30 06:41:44;;;;;;;8.18;3.67;;;;;;;28.36;39.23;99186.94;1804891;77;20999;-41
2021/06/30 06:44:13;;;;;;;3.85;3.20;;;;;;;28.35;39.14;99194.22;1793228;78;21022;-41
2021/06/30 06:46:40;;;;;;;2.75;2.55;;;;;;;28.34;38.91;99197.97;1815164;77;21011;-41
2021/06/30 06:49:09;;;;;;;5.87;2.80;;;;;;;28.34;38.53;99194.39;1821011;77;21004;-43
2021/06/30 06:51:37;;;;;;;3.37;2.52;;;;;;;28.32;38.27;99193.73;1820275;78;21168;-41
2021/06/30 06:54:04;;;;;;;3.33;2.33;;;;;;;28.32;38.18;99196.44;1787547;79;21112;-42
2021/06/30 06:56:33;;;;;;;4.10;1.98;;;;;;;28.31;38.13;99192.03;1771195;79;21494;-40
2021/06/30 06:59:00;;;;;;;2.75;2.37;;;;;;;28.30;38.29;99183.09;1788581;77;21043;-40
2021/06/30 07:01:27;;;;;;;2.37;2.00;;;;;;;28.31;38.40;99179.38;1812945;77;21008;-39
2021/06/30 07:03:54;;;;;;;4.53;2.00;;;;;;;28.32;38.44;99174.80;1811313;77;21045;-39
2021/06/30 07:06:20;;;;;;;2.00;1.80;;;;;;;28.34;38.49;99180.87;1806404;77;21285;-41
2021/06/30 07:08:47;;;;;;;2.58;1.77;;;;;;;28.35;38.57;99183.40;1802387;77;21674;-42
2021/06/30 07:11:13;;;;;;;1.70;1.60;;;;;;;28.37;38.61;99186.45;1797019;78;21050;-40
2021/06/30 07:13:40;;;;;;;1.87;1.62;;;;;;;28.39;38.50;99186.59;1807820;78;21089;-42
2021/06/30 07:16:09;;;;;;;2.40;1.27;;;;;;;28.38;38.00;99182.22;1811168;77;21011;-44
2021/06/30 07:18:37;;;;;;;1.65;1.55;;;;;;;28.37;37.63;99191.34;1762867;79;21023;-42
2021/06/30 07:21:03;;;;;;;1.80;1.70;;;;;;;28.34;37.73;99181.73;1817662;77;21498;-42
2021/06/30 07:23:31;;;;;;;3.67;1.40;;;;;;;28.36;37.86;99188.30;1788915;78;21145;-40
2021/06/30 07:25:58;;;;;;;5.80;1.60;;;;;;;28.37;37.69;99185.09;1771720;77;21082;-39
2021/06/30 07:28:26;;;;;;;2.42;1.40;;;;;;;28.37;37.54;99179.69;1822610;77;21134;-39
2021/06/30 07:30:52;;;;;;;5.20;1.40;;;;;;;28.37;37.64;99186.45;1817829;77;20964;-40
2021/06/30 07:33:20;;;;;;;2.70;1.22;;;;;;;28.37;37.79;99184.58;1810273;78;21031;-41
2021/06/30 07:35:47;;;;;;;4.55;1.55;;;;;;;28.39;37.94;99180.34;1817785;77;21060;-41
2021/06/30 07:38:13;;;;;;;1.47;1.37;;;;;;;28.37;38.07;99176.46;1813767;77;21085;-40
2021/06/30 07:40:40;;;;;;;2.90;1.62;;;;;;;28.31;38.13;99173.97;1807034;77;21018;-45
2021/06/30 07:43:07;;;;;;;3.22;1.40;;;;;;;28.26;38.27;99184.95;1775450;77;21068;-41
2021/06/30 07:45:34;;;;;;;2.30;1.47;;;;;;;28.22;38.20;99180.41;1785498;79;21020;-42
2021/06/30 07:48:00;;;;;;;3.67;1.40;;;;;;;28.20;37.85;99181.62;1790277;77;21071;-40
2021/06/30 07:50:27;;;;;;;9.68;2.02;;;;;;;28.20;37.66;99184.33;1793821;77;21078;-42
2021/06/30 07:52:54;;;;;;;3.17;1.75;;;;;;;28.23;37.47;99186.69;1797832;77;21091;-41
2021/06/30 07:55:22;;;;;;;3.33;1.87;;;;;;;28.24;37.31;99180.23;1787455;77;21070;-41
2021/06/30 07:57:50;;;;;;;5.30;1.60;;;;;;;28.26;37.16;99171.43;1790704;77;21032;-40
2021/06/30 08:00:17;;;;;;;2.98;1.50;;;;;;;28.27;37.04;99181.25;1788615;77;21468;-39
2021/06/30 08:02:44;;;;;;;4.03;1.75;;;;;;;28.29;36.98;99171.92;1782718;77;21044;-38
2021/06/30 08:05:11;;;;;;;1.25;1.10;;;;;;;28.31;37.20;99169.03;1787014;78;21114;-40
2021/06/30 08:07:38;;;;;;;4.72;1.50;;;;;;;28.34;37.35;99176.81;1788733;77;21058;-39
2021/06/30 08:10:07;;;;;;;2.37;1.72;;;;;;;28.37;37.57;99175.11;1796350;77;21562;-40
2021/06/30 08:12:35;;;;;;;3.62;1.92;;;;;;;28.39;37.69;99170.87;1789838;77;21604;-39
2021/06/30 08:15:01;;;;;;;1.50;1.40;;;;;;;28.41;37.79;99181.88;1813902;77;21004;-40
2021/06/30 08:17:28;;;;;;;3.55;1.50;;;;;;;28.44;37.92;99182.84;1799949;79;21052;-39
2021/06/30 08:19:55;;;;;;;3.77;1.22;;;;;;;28.47;37.93;99177.08;1792471;78;21043;-40
2021/06/30 08:22:22;;;;;;;1.52;1.20;;;;;;;28.49;37.86;99179.62;1777347;77;21118;-41
2021/06/30 08:24:48;;;;;;;2.15;1.35;;;;;;;28.52;37.89;99173.34;1809651;77;21023;-42
2021/06/30 08:27:19;;;;;;;2.58;1.30;;;;;;;28.54;37.92;99171.28;1812850;77;21070;-39
2021/06/30 08:29:45;;;;;;;2.92;1.40;;;;;;;28.56;37.92;99173.85;1803581;78;21192;-40
2021/06/30 08:32:12;;;;;;;2.65;1.60;;;;;;;28.57;37.89;99175.55;1795900;77;21036;-40
2021/06/30 08:34:40;;;;;;;3.72;1.50;;;;;;;28.59;37.86;99171.31;1753781;80;21140;-39
2021/06/30 08:37:08;;;;;;;2.67;1.40;;;;;;;28.59;37.84;99179.44;1796321;78;21097;-39
2021/06/30 08:39:35;;;;;;;4.22;3.35;;;;;;;28.61;37.80;99180.92;1751669;80;21054;-45
2021/06/30 08:42:02;;;;;;;5.67;2.92;;;;;;;28.62;37.67;99179.08;1801995;78;21055;-41
2021/06/30 08:44:28;;;;;;;3.55;2.50;;;;;;;28.64;37.66;99187.86;1805929;77;20975;-39
2021/06/30 08:46:56;;;;;;;3.95;2.35;;;;;;;28.65;37.65;99186.85;1789869;78;21125;-40
2021/06/30 08:49:26;;;;;;;6.45;2.20;;;;;;;28.68;37.58;99187.34;1755405;78;21027;-39
2021/06/30 08:51:55;;;;;;;2.33;2.12;;;;;;;28.70;37.49;99183.09;1778215;78;21080;-39
2021/06/30 08:54:22;;;;;;;3.47;1.90;;;;;;;28.74;37.25;99183.58;1748659;79;21066;-40
2021/06/30 08:56:50;;;;;;;5.95;1.90;;;;;;;28.76;37.16;99183.72;1793178;78;21635;-39
2021/06/30 08:59:16;;;;;;;8.65;1.92;;;;;;;28.77;36.98;99178.65;1789830;78;21050;-40
2021/06/30 09:01:45;;;;;;;5.60;1.65;;;;;;;28.78;37.13;99175.42;1767148;78;21037;-39
2021/06/30 09:04:14;;;;;;;3.40;1.72;;;;;;;28.80;37.16;99175.59;1810286;77;21035;-39
2021/06/30 09:06:42;;;;;;;2.27;1.82;;;;;;;28.82;37.27;99173.53;1787708;78;21138;-38
2021/06/30 09:09:15;;;;;;;2.12;1.80;;;;;;;28.84;37.44;99173.36;1798809;78;20979;-37
2021/06/30 09:11:45;;;;;;;4.08;1.65;;;;;;;28.87;37.56;99173.84;1761054;78;21115;-39
2021/06/30 09:14:23;;;;;;;2.80;1.82;;;;;;;28.90;37.67;99172.13;1791389;78;22196;-38
2021/06/30 09:17:08;;;;;;;1.52;1.42;;;;;;;28.93;37.77;99172.78;1790077;78;22077;-39
2021/06/30 09:19:58;;;;;;;3.15;1.35;;;;;;;28.95;37.82;99168.89;1758142;78;20927;-39
2021/06/30 09:22:27;;;;;;;2.12;1.30;;;;;;;28.97;37.88;99164.13;1800565;79;21054;-39
2021/06/30 09:24:56;;;;;;;2.65;1.50;;;;;;;29.03;37.96;99167.97;1811171;78;21519;-40
2021/06/30 09:27:40;;;;;;;2.60;1.50;;;;;;;29.05;37.98;99159.14;1787479;78;21129;-38
2021/06/30 09:30:10;;;;;;;5.60;1.20;;;;;;;29.07;37.97;99159.83;1786159;79;21042;-40
2021/06/30 09:32:36;;;;;;;7.25;1.70;;;;;;;29.11;37.99;99161.14;1811234;78;22444;-37
2021/06/30 09:35:22;;;;;;;2.17;1.37;;;;;;;29.13;37.99;99157.72;1795407;78;21526;-39
2021/06/30 09:37:49;;;;;;;1.75;1.50;;;;;;;29.16;37.96;99157.89;1806842;78;21062;-39
2021/06/30 09:40:17;;;;;;;1.80;1.37;;;;;;;29.18;37.75;99151.80;1821162;78;21071;-40
2021/06/30 09:42:46;;;;;;;1.35;1.27;;;;;;;29.19;37.27;99158.39;1817938;78;21537;-39
2021/06/30 09:45:17;;;;;;;2.75;1.30;;;;;;;29.15;36.17;99143.52;1815092;78;21121;-40
2021/06/30 09:47:47;;;;;;;1.35;1.02;;;;;;;29.09;35.64;99146.94;1772989;79;20960;-40
2021/06/30 09:50:14;;;;;;;3.00;1.17;;;;;;;29.03;35.44;99149.01;1806107;78;21077;-40
2021/06/30 09:52:41;;;;;;;4.55;1.22;;;;;;;28.96;35.30;99141.28;1789941;79;22138;-39
2021/06/30 09:55:28;;;;;;;1.90;1.25;;;;;;;28.91;35.17;99141.82;1807635;77;21057;-40
2021/06/30 09:57:56;;;;;;;2.47;1.20;;;;;;;28.88;35.18;99142.17;1816380;78;21131;-39
2021/06/30 10:00:24;;;;;;;1.30;1.12;;;;;;;28.83;35.19;99137.33;1810535;78;21481;-40
2021/06/30 10:02:51;;;;;;;1.98;1.20;;;;;;;28.81;35.24;99141.22;1821037;78;21537;-40
2021/06/30 10:05:29;;;;;;;2.98;1.10;;;;;;;28.79;35.28;99137.34;1813817;78;21991;-40
2021/06/30 10:08:12;;;;;;;1.27;1.20;;;;;;;28.76;35.27;99136.34;1809786;78;22117;-40
2021/06/30 10:10:40;;;;;;;1.30;1.20;;;;;;;28.75;35.18;99134.67;1812703;77;21499;-39
2021/06/30 10:13:06;;;;;;;1.27;1.12;;;;;;;28.73;35.14;99138.05;1779722;79;21624;-40
2021/06/30 10:15:33;;;;;;;1.27;1.07;;;;;;;28.72;35.12;99137.73;1809874;78;21093;-39
2021/06/30 10:18:02;;;;;;;0.98;0.98;;;;;;;28.71;35.05;99136.03;1808877;78;21552;-39
2021/06/30 10:20:30;;;;;;;1.85;1.05;;;;;;;28.70;35.00;99131.66;1777594;78;21042;-40
2021/06/30 10:22:57;;;;;;;1.72;1.05;;;;;;;28.69;34.91;99139.44;1809475;77;21122;-40
2021/06/30 10:25:23;;;;;;;1.25;0.82;;;;;;;28.70;34.68;99138.44;1782649;79;21099;-40
2021/06/30 10:27:53;;;;;;;1.62;1.00;;;;;;;28.69;34.67;99138.92;1787971;79;21051;-40
2021/06/30 10:30:21;;;;;;;1.27;0.90;;;;;;;28.68;34.60;99133.69;1810854;78;21067;-40
2021/06/30 10:32:59;;;;;;;1.07;0.98;;;;;;;28.67;34.60;99135.56;1753631;79;21025;-39
2021/06/30 10:35:25;;;;;;;1.95;1.37;;;;;;;28.66;34.65;99137.92;1772985;80;21506;-40
2021/06/30 10:37:55;;;;;;;1.30;1.15;;;;;;;28.66;34.71;99134.38;1707231;79;21073;-40
2021/06/30 10:40:23;;;;;;;2.00;1.10;;;;;;;28.67;34.80;99140.14;1765896;80;21054;-40
2021/06/30 10:43:12;;;;;;;1.50;1.07;;;;;;;28.67;34.84;99132.02;1761780;79;21050;-40
2021/06/30 10:45:35;;;;;;;1.32;1.10;;;;;;;28.67;34.94;99134.72;1743261;79;21043;-40
2021/06/30 10:48:10;;;;;;;1.60;1.35;;;;;;;28.69;34.89;99127.26;1707761;82;21035;-39
2021/06/30 10:50:46;;;;;;;1.20;1.20;;;;;;;28.69;34.98;99127.26;1757882;79;21008;-40
2021/06/30 10:53:29;;;;;;;1.55;1.45;;;;;;;28.68;35.11;99118.30;1730136;80;21018;-39
2021/06/30 10:56:00;;;;;;;1.32;1.22;;;;;;;28.70;35.16;99120.31;1715553;82;21536;-40
2021/06/30 10:58:30;;;;;;;1.10;1.10;;;;;;;28.71;35.29;99116.59;1738507;80;21046;-40
2021/06/30 11:01:09;;;;;;;1.65;1.35;;;;;;;28.70;35.42;99118.13;1741794;81;21535;-39
2021/06/30 11:03:46;;;;;;;1.67;1.57;;;;;;;28.69;35.57;99113.20;1695983;82;21508;-40
2021/06/30 11:06:25;;;;;;;2.37;1.60;;;;;;;28.70;35.70;99110.01;1717003;82;21095;-40
2021/06/30 11:09:05;;;;;;;3.80;1.47;;;;;;;28.68;35.83;99103.42;1700102;82;21073;-40
2021/06/30 11:11:38;;;;;;;1.45;1.17;;;;;;;28.68;35.96;99106.61;1698886;81;21658;-40
2021/06/30 11:14:15;;;;;;;2.02;1.32;;;;;;;28.67;36.04;99099.53;1755306;80;22259;-40
2021/06/30 11:16:54;;;;;;;1.50;1.40;;;;;;;28.68;36.05;99097.14;1753972;80;21075;-40
2021/06/30 11:19:27;;;;;;;2.37;1.47;;;;;;;28.68;36.10;99093.94;1755663;80;21536;-40
2021/06/30 11:22:05;;;;;;;3.37;1.50;;;;;;;28.68;36.15;99087.66;1733544;81;21032;-40
2021/06/30 11:24:50;;;;;;;1.65;1.55;;;;;;;28.70;36.22;99085.64;1758311;79;21625;-40
2021/06/30 11:27:38;;;;;;;1.45;1.35;;;;;;;28.70;36.30;99081.06;1747202;80;21875;-39
2021/06/30 11:30:02;;;;;;;2.22;1.60;;;;;;;28.72;36.43;99070.05;1751151;80;21063;-40
2021/06/30 11:32:42;;;;;;;1.62;1.52;;;;;;;28.73;36.65;99074.42;1756241;80;21051;-40
2021/06/30 11:35:26;;;;;;;1.98;1.60;;;;;;;28.72;36.91;99068.70;1759622;80;21476;-40
2021/06/30 11:38:13;;;;;;;1.98;1.80;;;;;;;28.71;37.07;99068.36;1715922;81;21333;-40
2021/06/30 11:40:55;;;;;;;1.60;1.50;;;;;;;28.74;37.16;99069.88;1738302;81;21146;-41